sensor_id;sensor_type;location;lat;lon;timestamp;pressure;altitude;pressure_sealevel;temperature;humidity
8894;BME280;4483;48.622;9.230;2023-07-08T00:02:00;97960.03;;;20.69;58.08
8894;BME280;4483;48.622;9.230;2023-07-08T00:04:27;97961.13;;;20.67;58.09
8894;BME280;4483;48.622;9.230;2023-07-08T00:06:53;97948.88;;;20.67;58.08
8894;BME280;4483;48.622;9.230;2023-07-08T00:09:20;97940.19;;;20.67;58.46
8894;BME280;4483;48.622;9.230;2023-07-08T00:11:46;97940.31;;;20.65;58.12
8894;BME280;4483;48.622;9.230;2023-07-08T00:14:13;97934.69;;;20.70;58.35
8894;BME280;4483;48.622;9.230;2023-07-08T00:16:41;97940.53;;;20.73;58.15
8894;BME280;4483;48.622;9.230;2023-07-08T00:19:08;97937.09;;;20.73;58.50
8894;BME280;4483;48.622;9.230;2023-07-08T00:21:36;97944.69;;;20.76;58.52
8894;BME280;4483;48.622;9.230;2023-07-08T00:24:02;97939.31;;;20.77;58.64
8894;BME280;4483;48.622;9.230;2023-07-08T00:26:30;97940.53;;;20.73;58.23
8894;BME280;4483;48.622;9.230;2023-07-08T00:28:57;97949.56;;;20.69;58.22
8894;BME280;4483;48.622;9.230;2023-07-08T00:31:24;97941.03;;;20.67;58.59
8894;BME280;4483;48.622;9.230;2023-07-08T00:33:54;97938.63;;;20.64;58.34
8894;BME280;4483;48.622;9.230;2023-07-08T00:36:22;97932.34;;;20.67;58.54
8894;BME280;4483;48.622;9.230;2023-07-08T00:38:50;97933.03;;;20.69;58.69
8894;BME280;4483;48.622;9.230;2023-07-08T00:41:21;97933.19;;;20.67;58.54
8894;BME280;4483;48.622;9.230;2023-07-08T00:43:50;97936.00;;;20.64;58.29
8894;BME280;4483;48.622;9.230;2023-07-08T00:46:37;97937.00;;;20.52;58.64
8894;BME280;4483;48.622;9.230;2023-07-08T00:49:21;97946.03;;;20.48;59.14
8894;BME280;4483;48.622;9.230;2023-07-08T00:51:50;97944.41;;;20.47;58.85
8894;BME280;4483;48.622;9.230;2023-07-08T00:54:18;97938.31;;;20.47;59.16
8894;BME280;4483;48.622;9.230;2023-07-08T00:56:47;97943.78;;;20.44;58.97
8894;BME280;4483;48.622;9.230;2023-07-08T00:59:19;97936.88;;;20.43;59.05
8894;BME280;4483;48.622;9.230;2023-07-08T01:01:47;97938.78;;;20.41;59.24
8894;BME280;4483;48.622;9.230;2023-07-08T01:04:18;97941.53;;;20.39;59.09
8894;BME280;4483;48.622;9.230;2023-07-08T01:06:50;97940.81;;;20.37;58.94
8894;BME280;4483;48.622;9.230;2023-07-08T01:09:24;97949.38;;;20.39;59.06
8894;BME280;4483;48.622;9.230;2023-07-08T01:11:54;97939.25;;;20.35;59.34
8894;BME280;4483;48.622;9.230;2023-07-08T01:14:26;97940.94;;;20.36;59.13
8894;BME280;4483;48.622;9.230;2023-07-08T01:16:53;97943.56;;;20.36;59.11
8894;BME280;4483;48.622;9.230;2023-07-08T01:19:22;97941.16;;;20.33;59.30
8894;BME280;4483;48.622;9.230;2023-07-08T01:22:02;97933.81;;;20.27;59.16
8894;BME280;4483;48.622;9.230;2023-07-08T01:24:30;97944.50;;;20.24;59.50
8894;BME280;4483;48.622;9.230;2023-07-08T01:26:58;97944.88;;;20.19;59.53
8894;BME280;4483;48.622;9.230;2023-07-08T01:29:26;97935.81;;;20.12;59.16
8894;BME280;4483;48.622;9.230;2023-07-08T01:31:54;97936.28;;;20.06;59.52
8894;BME280;4483;48.622;9.230;2023-07-08T01:34:21;97938.28;;;20.02;59.91
8894;BME280;4483;48.622;9.230;2023-07-08T01:36:51;97941.03;;;20.01;60.15
8894;BME280;4483;48.622;9.230;2023-07-08T01:39:22;97935.69;;;20.02;60.30
8894;BME280;4483;48.622;9.230;2023-07-08T01:41:50;97943.66;;;20.01;60.21
8894;BME280;4483;48.622;9.230;2023-07-08T01:44:28;97937.44;;;20.02;60.35
8894;BME280;4483;48.622;9.230;2023-07-08T01:46:58;97935.31;;;19.96;60.18
8894;BME280;4483;48.622;9.230;2023-07-08T01:49:27;97934.69;;;19.92;60.62
8894;BME280;4483;48.622;9.230;2023-07-08T01:51:55;97931.41;;;19.90;60.67
8894;BME280;4483;48.622;9.230;2023-07-08T01:54:23;97930.56;;;19.90;60.54
8894;BME280;4483;48.622;9.230;2023-07-08T01:56:54;97935.66;;;19.91;60.36
8894;BME280;4483;48.622;9.230;2023-07-08T01:59:21;97937.44;;;19.91;60.78
8894;BME280;4483;48.622;9.230;2023-07-08T02:01:48;97932.34;;;19.89;60.72
8894;BME280;4483;48.622;9.230;2023-07-08T02:04:19;97936.72;;;19.89;60.33
8894;BME280;4483;48.622;9.230;2023-07-08T02:06:51;97931.97;;;19.83;60.71
8894;BME280;4483;48.622;9.230;2023-07-08T02:09:17;97936.81;;;19.76;60.09
8894;BME280;4483;48.622;9.230;2023-07-08T02:11:45;97940.34;;;19.53;61.23
8894;BME280;4483;48.622;9.230;2023-07-08T02:14:12;97939.34;;;19.43;61.77
8894;BME280;4483;48.622;9.230;2023-07-08T02:16:39;97945.78;;;19.39;61.97
8894;BME280;4483;48.622;9.230;2023-07-08T02:19:05;97953.50;;;19.41;61.75
8894;BME280;4483;48.622;9.230;2023-07-08T02:21:32;97947.72;;;19.48;62.00
8894;BME280;4483;48.622;9.230;2023-07-08T02:24:00;97953.97;;;19.46;61.75
8894;BME280;4483;48.622;9.230;2023-07-08T02:26:27;97946.34;;;19.32;61.50
8894;BME280;4483;48.622;9.230;2023-07-08T02:28:55;97951.56;;;19.32;62.11
8894;BME280;4483;48.622;9.230;2023-07-08T02:31:21;97948.19;;;19.30;62.82
8894;BME280;4483;48.622;9.230;2023-07-08T02:33:50;97954.06;;;19.33;62.62
8894;BME280;4483;48.622;9.230;2023-07-08T02:36:16;97952.28;;;19.34;62.45
8894;BME280;4483;48.622;9.230;2023-07-08T02:38:43;97955.38;;;19.39;62.50
8894;BME280;4483;48.622;9.230;2023-07-08T02:41:09;97965.59;;;19.42;62.38
8894;BME280;4483;48.622;9.230;2023-07-08T02:43:37;97976.53;;;19.47;62.26
8894;BME280;4483;48.622;9.230;2023-07-08T02:46:05;97981.56;;;19.50;62.59
8894;BME280;4483;48.622;9.230;2023-07-08T02:48:31;98001.19;;;19.55;62.03
8894;BME280;4483;48.622;9.230;2023-07-08T02:50:59;97992.97;;;19.60;61.71
8894;BME280;4483;48.622;9.230;2023-07-08T02:53:26;97988.00;;;19.57;61.65
8894;BME280;4483;48.622;9.230;2023-07-08T02:55:52;97981.16;;;19.43;61.42
8894;BME280;4483;48.622;9.230;2023-07-08T02:58:19;97994.34;;;19.18;61.57
8894;BME280;4483;48.622;9.230;2023-07-08T03:00:51;97990.06;;;18.93;62.89
8894;BME280;4483;48.622;9.230;2023-07-08T03:03:19;97984.53;;;18.85;62.99
8894;BME280;4483;48.622;9.230;2023-07-08T03:05:53;97984.34;;;18.76;62.67
8894;BME280;4483;48.622;9.230;2023-07-08T03:08:20;97988.72;;;18.75;63.68
8894;BME280;4483;48.622;9.230;2023-07-08T03:10:47;97992.50;;;18.84;63.49
8894;BME280;4483;48.622;9.230;2023-07-08T03:13:14;97985.53;;;18.95;63.48
8894;BME280;4483;48.622;9.230;2023-07-08T03:15:44;97979.66;;;19.04;63.40
8894;BME280;4483;48.622;9.230;2023-07-08T03:18:11;97995.22;;;19.06;62.99
8894;BME280;4483;48.622;9.230;2023-07-08T03:20:40;98000.59;;;18.92;62.54
8894;BME280;4483;48.622;9.230;2023-07-08T03:23:09;97984.31;;;18.88;63.46
8894;BME280;4483;48.622;9.230;2023-07-08T03:25:36;97986.19;;;18.86;63.64
8894;BME280;4483;48.622;9.230;2023-07-08T03:28:03;97997.09;;;18.80;63.67
8894;BME280;4483;48.622;9.230;2023-07-08T03:30:31;97992.31;;;18.74;64.36
8894;BME280;4483;48.622;9.230;2023-07-08T03:32:58;97992.19;;;18.76;64.34
8894;BME280;4483;48.622;9.230;2023-07-08T03:35:24;97992.38;;;18.85;64.04
8894;BME280;4483;48.622;9.230;2023-07-08T03:37:52;97992.88;;;18.90;64.27
8894;BME280;4483;48.622;9.230;2023-07-08T03:40:19;97993.59;;;18.92;63.93
8894;BME280;4483;48.622;9.230;2023-07-08T03:42:46;97992.03;;;18.90;63.76
8894;BME280;4483;48.622;9.230;2023-07-08T03:45:12;97989.09;;;18.94;63.94
8894;BME280;4483;48.622;9.230;2023-07-08T03:47:39;97987.72;;;19.01;63.65
8894;BME280;4483;48.622;9.230;2023-07-08T03:50:11;97986.97;;;18.99;63.61
8894;BME280;4483;48.622;9.230;2023-07-08T03:52:43;97983.88;;;18.94;63.95
8894;BME280;4483;48.622;9.230;2023-07-08T03:55:11;97983.75;;;18.96;63.84
8894;BME280;4483;48.622;9.230;2023-07-08T03:57:38;97984.50;;;18.98;63.86
8894;BME280;4483;48.622;9.230;2023-07-08T04:00:06;97985.34;;;18.98;64.13
8894;BME280;4483;48.622;9.230;2023-07-08T04:02:34;97979.44;;;19.08;63.89
8894;BME280;4483;48.622;9.230;2023-07-08T04:05:01;97981.72;;;19.12;63.51
8894;BME280;4483;48.622;9.230;2023-07-08T04:07:28;97976.28;;;19.15;63.10
8894;BME280;4483;48.622;9.230;2023-07-08T04:09:55;97976.84;;;19.08;63.83
8894;BME280;4483;48.622;9.230;2023-07-08T04:12:23;97979.94;;;19.13;63.77
8894;BME280;4483;48.622;9.230;2023-07-08T04:14:50;97978.06;;;19.15;63.49
8894;BME280;4483;48.622;9.230;2023-07-08T04:17:17;97978.53;;;19.20;64.00
8894;BME280;4483;48.622;9.230;2023-07-08T04:19:45;97983.66;;;19.21;62.93
8894;BME280;4483;48.622;9.230;2023-07-08T04:22:11;98000.72;;;19.14;63.97
8894;BME280;4483;48.622;9.230;2023-07-08T04:24:38;98007.75;;;19.14;63.56
8894;BME280;4483;48.622;9.230;2023-07-08T04:27:05;97997.31;;;19.25;63.71
8894;BME280;4483;48.622;9.230;2023-07-08T04:29:33;97991.00;;;19.40;63.38
8894;BME280;4483;48.622;9.230;2023-07-08T04:32:00;98009.59;;;19.48;63.47
8894;BME280;4483;48.622;9.230;2023-07-08T04:34:27;98011.63;;;19.55;63.13
8894;BME280;4483;48.622;9.230;2023-07-08T04:36:54;98006.78;;;19.62;63.14
8894;BME280;4483;48.622;9.230;2023-07-08T04:39:20;98001.38;;;19.76;62.79
8894;BME280;4483;48.622;9.230;2023-07-08T04:41:47;97992.84;;;19.85;62.12
8894;BME280;4483;48.622;9.230;2023-07-08T04:44:14;97992.94;;;19.94;62.32
8894;BME280;4483;48.622;9.230;2023-07-08T04:46:48;97982.38;;;20.07;62.09
8894;BME280;4483;48.622;9.230;2023-07-08T04:49:16;97983.59;;;20.14;61.94
8894;BME280;4483;48.622;9.230;2023-07-08T04:51:43;97982.69;;;20.26;61.23
8894;BME280;4483;48.622;9.230;2023-07-08T04:54:10;97993.28;;;20.36;61.01
8894;BME280;4483;48.622;9.230;2023-07-08T04:56:38;97999.34;;;20.47;60.50
8894;BME280;4483;48.622;9.230;2023-07-08T04:59:07;98002.56;;;20.51;60.51
8894;BME280;4483;48.622;9.230;2023-07-08T05:01:34;98007.53;;;20.65;60.07
8894;BME280;4483;48.622;9.230;2023-07-08T05:04:03;97996.91;;;20.88;59.56
8894;BME280;4483;48.622;9.230;2023-07-08T05:06:31;97997.16;;;21.08;58.93
8894;BME280;4483;48.622;9.230;2023-07-08T05:08:58;98006.88;;;21.28;58.66
8894;BME280;4483;48.622;9.230;2023-07-08T05:11:25;98015.22;;;21.22;58.11
8894;BME280;4483;48.622;9.230;2023-07-08T05:13:52;98020.34;;;21.12;58.57
8894;BME280;4483;48.622;9.230;2023-07-08T05:16:18;98029.63;;;21.16;58.78
8894;BME280;4483;48.622;9.230;2023-07-08T05:18:45;98023.91;;;21.22;58.61
8894;BME280;4483;48.622;9.230;2023-07-08T05:21:13;98001.66;;;21.17;58.62
8894;BME280;4483;48.622;9.230;2023-07-08T05:23:40;98010.34;;;21.06;58.92
8894;BME280;4483;48.622;9.230;2023-07-08T05:26:07;98013.34;;;20.90;59.01
8894;BME280;4483;48.622;9.230;2023-07-08T05:28:34;98007.16;;;20.80;58.93
8894;BME280;4483;48.622;9.230;2023-07-08T05:31:00;98014.81;;;20.72;58.88
8894;BME280;4483;48.622;9.230;2023-07-08T05:33:29;98012.78;;;20.65;59.41
8894;BME280;4483;48.622;9.230;2023-07-08T05:35:56;98019.56;;;20.67;59.84
8894;BME280;4483;48.622;9.230;2023-07-08T05:38:25;98017.16;;;20.86;60.12
8894;BME280;4483;48.622;9.230;2023-07-08T05:40:55;98021.66;;;21.07;60.17
8894;BME280;4483;48.622;9.230;2023-07-08T05:43:22;98023.19;;;21.20;60.14
8894;BME280;4483;48.622;9.230;2023-07-08T05:45:48;98026.16;;;21.27;60.36
8894;BME280;4483;48.622;9.230;2023-07-08T05:48:15;98021.13;;;21.35;59.52
8894;BME280;4483;48.622;9.230;2023-07-08T05:50:42;98031.09;;;21.41;59.53
8894;BME280;4483;48.622;9.230;2023-07-08T05:53:09;98033.09;;;21.48;58.95
8894;BME280;4483;48.622;9.230;2023-07-08T05:55:40;98033.44;;;21.55;58.99
8894;BME280;4483;48.622;9.230;2023-07-08T05:58:07;98032.34;;;21.57;59.38
8894;BME280;4483;48.622;9.230;2023-07-08T06:00:35;98038.44;;;21.58;59.50
8894;BME280;4483;48.622;9.230;2023-07-08T06:03:02;98031.53;;;21.57;59.85
8894;BME280;4483;48.622;9.230;2023-07-08T06:05:28;98034.16;;;21.57;60.29
8894;BME280;4483;48.622;9.230;2023-07-08T06:07:55;98028.78;;;21.58;60.59
8894;BME280;4483;48.622;9.230;2023-07-08T06:10:21;98038.44;;;21.58;60.80
8894;BME280;4483;48.622;9.230;2023-07-08T06:12:49;98022.97;;;21.55;61.14
8894;BME280;4483;48.622;9.230;2023-07-08T06:15:16;98028.34;;;21.53;61.50
8894;BME280;4483;48.622;9.230;2023-07-08T06:17:43;98030.25;;;21.51;61.68
8894;BME280;4483;48.622;9.230;2023-07-08T06:20:09;98028.44;;;21.52;62.07
8894;BME280;4483;48.622;9.230;2023-07-08T06:22:36;98039.53;;;21.55;62.30
8894;BME280;4483;48.622;9.230;2023-07-08T06:25:04;98040.13;;;21.59;62.56
8894;BME280;4483;48.622;9.230;2023-07-08T06:27:31;98039.59;;;21.65;62.74
8894;BME280;4483;48.622;9.230;2023-07-08T06:29:59;98043.50;;;21.70;62.51
8894;BME280;4483;48.622;9.230;2023-07-08T06:32:26;98050.28;;;21.73;62.51
8894;BME280;4483;48.622;9.230;2023-07-08T06:34:53;98059.56;;;21.77;62.51
8894;BME280;4483;48.622;9.230;2023-07-08T06:37:19;98063.53;;;21.82;62.44
8894;BME280;4483;48.622;9.230;2023-07-08T06:39:46;98060.75;;;21.84;62.40
8894;BME280;4483;48.622;9.230;2023-07-08T06:42:12;98058.84;;;21.86;61.98
8894;BME280;4483;48.622;9.230;2023-07-08T06:44:39;98064.66;;;21.89;61.71
8894;BME280;4483;48.622;9.230;2023-07-08T06:47:10;98083.63;;;21.93;61.27
8894;BME280;4483;48.622;9.230;2023-07-08T06:49:36;98079.66;;;21.98;60.35
8894;BME280;4483;48.622;9.230;2023-07-08T06:52:03;98097.63;;;22.03;59.67
8894;BME280;4483;48.622;9.230;2023-07-08T06:54:30;98084.97;;;22.08;58.86
8894;BME280;4483;48.622;9.230;2023-07-08T06:56:57;98090.41;;;22.16;58.02
8894;BME280;4483;48.622;9.230;2023-07-08T06:59:23;98084.38;;;22.25;57.74
8894;BME280;4483;48.622;9.230;2023-07-08T07:01:50;98077.28;;;22.37;57.12
8894;BME280;4483;48.622;9.230;2023-07-08T07:04:18;98086.63;;;22.50;56.53
8894;BME280;4483;48.622;9.230;2023-07-08T07:06:44;98078.69;;;22.61;56.35
8894;BME280;4483;48.622;9.230;2023-07-08T07:09:11;98078.22;;;22.77;56.40
8894;BME280;4483;48.622;9.230;2023-07-08T07:11:37;98080.22;;;22.94;56.46
8894;BME280;4483;48.622;9.230;2023-07-08T07:14:04;98083.31;;;23.09;56.62
8894;BME280;4483;48.622;9.230;2023-07-08T07:16:30;98088.88;;;23.25;56.58
8894;BME280;4483;48.622;9.230;2023-07-08T07:18:57;98075.94;;;23.42;56.60
8894;BME280;4483;48.622;9.230;2023-07-08T07:21:25;98083.72;;;23.63;55.78
8894;BME280;4483;48.622;9.230;2023-07-08T07:23:52;98089.25;;;23.79;55.56
8894;BME280;4483;48.622;9.230;2023-07-08T07:26:18;98086.22;;;23.93;55.57
8894;BME280;4483;48.622;9.230;2023-07-08T07:28:45;98090.25;;;24.07;55.22
8894;BME280;4483;48.622;9.230;2023-07-08T07:31:11;98089.84;;;24.21;54.58
8894;BME280;4483;48.622;9.230;2023-07-08T07:33:38;98092.88;;;24.35;54.09
8894;BME280;4483;48.622;9.230;2023-07-08T07:36:04;98089.78;;;24.49;53.70
8894;BME280;4483;48.622;9.230;2023-07-08T07:38:33;98092.53;;;24.57;53.19
8894;BME280;4483;48.622;9.230;2023-07-08T07:41:00;98091.69;;;24.66;52.97
8894;BME280;4483;48.622;9.230;2023-07-08T07:43:31;98091.13;;;24.72;53.34
8894;BME280;4483;48.622;9.230;2023-07-08T07:45:58;98103.88;;;24.77;53.16
8894;BME280;4483;48.622;9.230;2023-07-08T07:48:24;98098.47;;;24.78;52.44
8894;BME280;4483;48.622;9.230;2023-07-08T07:50:51;98103.72;;;24.78;52.49
8894;BME280;4483;48.622;9.230;2023-07-08T07:53:18;98098.75;;;24.75;52.77
8894;BME280;4483;48.622;9.230;2023-07-08T07:55:46;98097.38;;;24.71;52.71
8894;BME280;4483;48.622;9.230;2023-07-08T07:58:13;98090.69;;;24.67;52.89
8894;BME280;4483;48.622;9.230;2023-07-08T08:00:39;98097.66;;;24.68;53.03
8894;BME280;4483;48.622;9.230;2023-07-08T08:03:06;98094.75;;;24.71;53.85
8894;BME280;4483;48.622;9.230;2023-07-08T08:05:33;98093.19;;;24.78;53.71
8894;BME280;4483;48.622;9.230;2023-07-08T08:07:59;98097.88;;;24.84;54.04
8894;BME280;4483;48.622;9.230;2023-07-08T08:10:28;98096.34;;;24.92;53.74
8894;BME280;4483;48.622;9.230;2023-07-08T08:12:56;98090.34;;;24.99;53.40
8894;BME280;4483;48.622;9.230;2023-07-08T08:15:23;98097.66;;;25.05;53.68
8894;BME280;4483;48.622;9.230;2023-07-08T08:17:49;98092.78;;;25.10;54.00
8894;BME280;4483;48.622;9.230;2023-07-08T08:20:17;98093.41;;;25.22;54.97
8894;BME280;4483;48.622;9.230;2023-07-08T08:22:45;98095.03;;;25.32;55.28
8894;BME280;4483;48.622;9.230;2023-07-08T08:25:12;98094.84;;;25.43;54.12
8894;BME280;4483;48.622;9.230;2023-07-08T08:27:39;98094.91;;;25.51;53.81
8894;BME280;4483;48.622;9.230;2023-07-08T08:30:07;98110.69;;;25.61;54.05
8894;BME280;4483;48.622;9.230;2023-07-08T08:32:34;98111.75;;;25.68;53.05
8894;BME280;4483;48.622;9.230;2023-07-08T08:35:00;98107.84;;;25.72;52.11
8894;BME280;4483;48.622;9.230;2023-07-08T08:37:27;98103.25;;;25.92;52.01
8894;BME280;4483;48.622;9.230;2023-07-08T08:39:54;98108.38;;;26.28;51.71
8894;BME280;4483;48.622;9.230;2023-07-08T08:42:25;98103.50;;;26.41;51.29
8894;BME280;4483;48.622;9.230;2023-07-08T08:44:52;98105.38;;;26.49;51.04
8894;BME280;4483;48.622;9.230;2023-07-08T08:47:30;98113.84;;;26.52;50.81
8894;BME280;4483;48.622;9.230;2023-07-08T08:50:02;98114.50;;;26.54;49.97
8894;BME280;4483;48.622;9.230;2023-07-08T08:52:30;98112.91;;;26.61;49.92
8894;BME280;4483;48.622;9.230;2023-07-08T08:54:57;98114.69;;;26.78;49.72
8894;BME280;4483;48.622;9.230;2023-07-08T08:57:32;98121.34;;;26.83;48.46
8894;BME280;4483;48.622;9.230;2023-07-08T09:00:04;98124.66;;;26.85;48.98
8894;BME280;4483;48.622;9.230;2023-07-08T09:02:37;98139.59;;;26.94;48.96
8894;BME280;4483;48.622;9.230;2023-07-08T09:05:07;98128.84;;;26.95;48.85
8894;BME280;4483;48.622;9.230;2023-07-08T09:07:41;98132.31;;;26.96;48.59
8894;BME280;4483;48.622;9.230;2023-07-08T09:10:19;98130.31;;;26.98;48.81
8894;BME280;4483;48.622;9.230;2023-07-08T09:12:50;98128.56;;;27.06;48.42
8894;BME280;4483;48.622;9.230;2023-07-08T09:15:18;98136.53;;;27.14;47.71
8894;BME280;4483;48.622;9.230;2023-07-08T09:17:46;98137.19;;;27.16;47.50
8894;BME280;4483;48.622;9.230;2023-07-08T09:20:21;98138.72;;;27.19;46.93
8894;BME280;4483;48.622;9.230;2023-07-08T09:22:53;98132.06;;;27.15;46.90
8894;BME280;4483;48.622;9.230;2023-07-08T09:25:27;98129.25;;;27.16;46.62
8894;BME280;4483;48.622;9.230;2023-07-08T09:27:56;98133.75;;;27.24;46.62
8894;BME280;4483;48.622;9.230;2023-07-08T09:30:24;98129.94;;;27.60;46.88
8894;BME280;4483;48.622;9.230;2023-07-08T09:32:53;98125.22;;;27.88;46.21
8894;BME280;4483;48.622;9.230;2023-07-08T09:35:22;98121.47;;;27.98;45.81
8894;BME280;4483;48.622;9.230;2023-07-08T09:37:49;98115.66;;;27.95;44.85
8894;BME280;4483;48.622;9.230;2023-07-08T09:40:18;98114.78;;;27.86;44.88
8894;BME280;4483;48.622;9.230;2023-07-08T09:42:49;98116.59;;;27.77;44.94
8894;BME280;4483;48.622;9.230;2023-07-08T09:45:17;98112.97;;;27.70;45.19
8894;BME280;4483;48.622;9.230;2023-07-08T09:47:45;98122.88;;;27.68;45.16
8894;BME280;4483;48.622;9.230;2023-07-08T09:50:18;98122.72;;;27.70;44.70
8894;BME280;4483;48.622;9.230;2023-07-08T09:52:46;98114.44;;;27.73;44.71
8894;BME280;4483;48.622;9.230;2023-07-08T09:55:13;98126.75;;;28.06;44.20
8894;BME280;4483;48.622;9.230;2023-07-08T09:57:40;98127.25;;;28.26;43.72
8894;BME280;4483;48.622;9.230;2023-07-08T10:00:12;98116.66;;;28.34;43.37
8894;BME280;4483;48.622;9.230;2023-07-08T10:02:41;98127.09;;;28.43;42.94
8894;BME280;4483;48.622;9.230;2023-07-08T10:05:14;98121.16;;;28.57;42.39
8894;BME280;4483;48.622;9.230;2023-07-08T10:07:45;98125.94;;;28.78;41.88
8894;BME280;4483;48.622;9.230;2023-07-08T10:10:15;98118.69;;;29.57;40.76
8894;BME280;4483;48.622;9.230;2023-07-08T10:12:55;98115.91;;;30.49;39.07
8894;BME280;4483;48.622;9.230;2023-07-08T10:15:28;98106.06;;;31.31;37.10
8894;BME280;4483;48.622;9.230;2023-07-08T10:17:56;98105.72;;;32.05;35.72
8894;BME280;4483;48.622;9.230;2023-07-08T10:20:24;98103.13;;;32.61;35.28
8894;BME280;4483;48.622;9.230;2023-07-08T10:23:11;98101.28;;;33.23;34.42
8894;BME280;4483;48.622;9.230;2023-07-08T10:25:46;98105.59;;;33.58;32.79
8894;BME280;4483;48.622;9.230;2023-07-08T10:28:31;98100.97;;;33.99;31.83
8894;BME280;4483;48.622;9.230;2023-07-08T10:31:10;98110.72;;;33.66;31.73
8894;BME280;4483;48.622;9.230;2023-07-08T10:33:56;98103.34;;;33.62;31.58
8894;BME280;4483;48.622;9.230;2023-07-08T10:36:40;98095.31;;;33.62;30.77
8894;BME280;4483;48.622;9.230;2023-07-08T10:42:19;98093.91;;;33.25;32.27
8894;BME280;4483;48.622;9.230;2023-07-08T10:44:57;98089.28;;;33.46;31.42
8894;BME280;4483;48.622;9.230;2023-07-08T10:47:36;98082.31;;;33.52;31.63
8894;BME280;4483;48.622;9.230;2023-07-08T10:50:21;98094.91;;;33.58;31.15
8894;BME280;4483;48.622;9.230;2023-07-08T10:52:57;98093.19;;;33.44;31.15
8894;BME280;4483;48.622;9.230;2023-07-08T10:55:35;98084.19;;;33.11;31.63
8894;BME280;4483;48.622;9.230;2023-07-08T10:58:20;98086.69;;;32.85;32.08
8894;BME280;4483;48.622;9.230;2023-07-08T11:00:54;98084.03;;;32.91;32.02
8894;BME280;4483;48.622;9.230;2023-07-08T11:03:44;98080.97;;;33.28;31.78
8894;BME280;4483;48.622;9.230;2023-07-08T11:06:18;98076.22;;;33.71;30.82
8894;BME280;4483;48.622;9.230;2023-07-08T11:08:49;98073.44;;;34.12;31.14
8894;BME280;4483;48.622;9.230;2023-07-08T11:11:28;98078.38;;;34.41;30.22
8894;BME280;4483;48.622;9.230;2023-07-08T11:14:01;98070.53;;;34.79;29.69
8894;BME280;4483;48.622;9.230;2023-07-08T11:16:33;98064.72;;;35.08;29.41
8894;BME280;4483;48.622;9.230;2023-07-08T11:19:06;98061.75;;;35.29;28.85
8894;BME280;4483;48.622;9.230;2023-07-08T11:21:39;98059.97;;;35.61;29.00
8894;BME280;4483;48.622;9.230;2023-07-08T11:24:18;98061.50;;;35.81;28.61
8894;BME280;4483;48.622;9.230;2023-07-08T11:26:51;98059.28;;;36.09;28.73
8894;BME280;4483;48.622;9.230;2023-07-08T11:29:22;98062.13;;;36.39;27.95
8894;BME280;4483;48.622;9.230;2023-07-08T11:31:50;98058.94;;;36.49;27.50
8894;BME280;4483;48.622;9.230;2023-07-08T11:34:18;98049.16;;;36.61;27.36
8894;BME280;4483;48.622;9.230;2023-07-08T11:36:46;98051.19;;;36.41;26.35
8894;BME280;4483;48.622;9.230;2023-07-08T11:39:31;98052.38;;;36.20;26.70
8894;BME280;4483;48.622;9.230;2023-07-08T11:42:15;98036.56;;;36.37;27.31
8894;BME280;4483;48.622;9.230;2023-07-08T11:44:44;98023.41;;;36.71;26.35
8894;BME280;4483;48.622;9.230;2023-07-08T11:47:17;98029.09;;;37.17;26.16
8894;BME280;4483;48.622;9.230;2023-07-08T11:49:46;98024.81;;;37.46;25.70
8894;BME280;4483;48.622;9.230;2023-07-08T11:52:16;98024.50;;;37.54;25.82
8894;BME280;4483;48.622;9.230;2023-07-08T11:54:46;98007.50;;;37.42;25.18
8894;BME280;4483;48.622;9.230;2023-07-08T11:57:18;98008.81;;;37.51;25.79
8894;BME280;4483;48.622;9.230;2023-07-08T12:00:10;98008.63;;;37.64;25.57
8894;BME280;4483;48.622;9.230;2023-07-08T12:02:48;97993.28;;;37.83;26.09
8894;BME280;4483;48.622;9.230;2023-07-08T12:05:15;97998.50;;;38.19;25.59
8894;BME280;4483;48.622;9.230;2023-07-08T12:07:45;97993.31;;;38.17;25.30
8894;BME280;4483;48.622;9.230;2023-07-08T12:10:17;98006.13;;;37.81;24.61
8894;BME280;4483;48.622;9.230;2023-07-08T12:12:46;97994.47;;;37.57;25.62
8894;BME280;4483;48.622;9.230;2023-07-08T12:15:17;98005.81;;;37.59;25.44
8894;BME280;4483;48.622;9.230;2023-07-08T12:17:47;98006.66;;;37.71;25.12
8894;BME280;4483;48.622;9.230;2023-07-08T12:20:21;98001.59;;;37.93;24.80
8894;BME280;4483;48.622;9.230;2023-07-08T12:22:48;97987.34;;;38.15;25.17
8894;BME280;4483;48.622;9.230;2023-07-08T12:25:15;97995.22;;;38.40;24.14
8894;BME280;4483;48.622;9.230;2023-07-08T12:27:45;97986.81;;;38.37;23.53
8894;BME280;4483;48.622;9.230;2023-07-08T12:30:14;97990.75;;;38.11;23.69
8894;BME280;4483;48.622;9.230;2023-07-08T12:32:43;97995.06;;;37.89;24.11
8894;BME280;4483;48.622;9.230;2023-07-08T12:35:24;97998.00;;;37.69;24.19
8894;BME280;4483;48.622;9.230;2023-07-08T12:37:53;97995.13;;;37.53;24.72
8894;BME280;4483;48.622;9.230;2023-07-08T12:40:22;97984.78;;;37.56;24.97
8894;BME280;4483;48.622;9.230;2023-07-08T12:42:50;97982.53;;;37.83;25.40
8894;BME280;4483;48.622;9.230;2023-07-08T12:45:20;97989.56;;;37.95;24.92
8894;BME280;4483;48.622;9.230;2023-07-08T12:47:48;97982.06;;;37.97;24.43
8894;BME280;4483;48.622;9.230;2023-07-08T12:50:15;97980.56;;;38.01;24.37
8894;BME280;4483;48.622;9.230;2023-07-08T12:52:43;97978.69;;;38.02;24.72
8894;BME280;4483;48.622;9.230;2023-07-08T12:55:11;97977.16;;;37.94;24.38
8894;BME280;4483;48.622;9.230;2023-07-08T12:57:40;97975.50;;;37.82;24.46
8894;BME280;4483;48.622;9.230;2023-07-08T13:00:13;97981.41;;;37.72;24.49
8894;BME280;4483;48.622;9.230;2023-07-08T13:02:44;97977.53;;;37.68;24.87
8894;BME280;4483;48.622;9.230;2023-07-08T13:05:12;97974.47;;;37.53;24.68
8894;BME280;4483;48.622;9.230;2023-07-08T13:07:41;97970.56;;;37.38;25.20
8894;BME280;4483;48.622;9.230;2023-07-08T13:10:16;97969.03;;;37.30;25.04
8894;BME280;4483;48.622;9.230;2023-07-08T13:12:44;97975.88;;;37.26;25.07
8894;BME280;4483;48.622;9.230;2023-07-08T13:15:19;97975.28;;;37.24;25.77
8894;BME280;4483;48.622;9.230;2023-07-08T13:17:47;97982.31;;;37.25;25.66
8894;BME280;4483;48.622;9.230;2023-07-08T13:20:15;97977.81;;;37.19;25.92
8894;BME280;4483;48.622;9.230;2023-07-08T13:22:46;97973.28;;;37.19;25.94
8894;BME280;4483;48.622;9.230;2023-07-08T13:25:16;97967.06;;;37.19;25.55
8894;BME280;4483;48.622;9.230;2023-07-08T13:27:54;97964.97;;;37.21;26.06
8894;BME280;4483;48.622;9.230;2023-07-08T13:30:25;97969.28;;;37.40;25.46
8894;BME280;4483;48.622;9.230;2023-07-08T13:32:53;97965.59;;;37.64;25.78
8894;BME280;4483;48.622;9.230;2023-07-08T13:35:28;97963.56;;;37.89;25.58
8894;BME280;4483;48.622;9.230;2023-07-08T13:37:59;97958.69;;;37.98;25.13